首页
METAR-TAF:

METAR-TAF

机场 :

霍尼亞拉國際機場

霍尼亚拉, 瓜达尔卡纳尔岛, 所罗门群岛

纬度: 09-25S, 经度: 160-03E, 海拔: 8米

当前天气观测

该预报发布于4小时和23分钟前的07:00 UTC
风速5节,风向北转东北
温度 29°C
湿度 84%
气压 1010 hPa
能见度10公里或以上
少量云层高于1800英尺
少量云层高于1900英尺, 积雨云.
多云层高于2900英尺

METAR: AGGH 180700Z 02005KT 9999 FEW018 FEW019CB BKN029 29/26 Q1010 S/SE

时间: 22:23 (11:23 UTC)

预报

该预报发布于5小时和58分钟前的05:25 UTC
预报有效从18日的 06点(UTC)到 19日的 06点(UTC)
风速10节,风向
能見度: 1010
散云层高于2000英尺
多云层高于10000英尺

TAF: AGGH 180525Z 1806/1906 36010KT 9999 SCT020 BKN100 T 30 26 24 24 Q 1009 1011 1012 1010 TAF3

超过4000个机场的气象观测和天气预报(METAR&TAF报告)。

可查询的气象台以黄色和红色小点在地图上表示。

将鼠标移到小点上方,可查看气象台名称。

然后点击查看天气观测和预报。

如需切换地图:点击带黑十字的绿色按钮放大地图;点击带横线的绿色按钮缩小地图;或者点击绿色箭头查看邻近地区的地图。


METAR-TAF: